sensor_id;sensor_type;location;lat;lon;timestamp;P1;durP1;ratioP1;P2;durP2;ratioP2
2021;SDS011;1015;49.756;6.994;2022-08-01T00:01:34;2.23;;;2.10;;
2021;SDS011;1015;49.756;6.994;2022-08-01T00:04:02;2.30;;;2.10;;
2021;SDS011;1015;49.756;6.994;2022-08-01T00:06:31;3.10;;;2.47;;
2021;SDS011;1015;49.756;6.994;2022-08-01T00:08:58;1.80;;;1.70;;
2021;SDS011;1015;49.756;6.994;2022-08-01T00:11:25;2.27;;;2.10;;
2021;SDS011;1015;49.756;6.994;2022-08-01T00:13:52;2.50;;;2.00;;
2021;SDS011;1015;49.756;6.994;2022-08-01T00:16:19;2.60;;;2.40;;
2021;SDS011;1015;49.756;6.994;2022-08-01T00:18:47;2.90;;;1.80;;
2021;SDS011;1015;49.756;6.994;2022-08-01T00:21:14;2.23;;;2.00;;
2021;SDS011;1015;49.756;6.994;2022-08-01T00:23:43;2.10;;;1.90;;
2021;SDS011;1015;49.756;6.994;2022-08-01T00:26:11;2.40;;;2.20;;
2021;SDS011;1015;49.756;6.994;2022-08-01T00:28:38;2.43;;;2.23;;
2021;SDS011;1015;49.756;6.994;2022-08-01T00:31:05;2.17;;;1.97;;
2021;SDS011;1015;49.756;6.994;2022-08-01T00:33:31;3.73;;;1.77;;
2021;SDS011;1015;49.756;6.994;2022-08-01T00:35:58;2.20;;;2.00;;
2021;SDS011;1015;49.756;6.994;2022-08-01T00:38:25;2.90;;;2.20;;
2021;SDS011;1015;49.756;6.994;2022-08-01T00:40:54;2.87;;;2.23;;
2021;SDS011;1015;49.756;6.994;2022-08-01T00:43:21;1.83;;;1.73;;
2021;SDS011;1015;49.756;6.994;2022-08-01T00:45:48;2.00;;;1.90;;
2021;SDS011;1015;49.756;6.994;2022-08-01T00:48:15;2.27;;;2.07;;
2021;SDS011;1015;49.756;6.994;2022-08-01T00:50:42;2.33;;;2.00;;
2021;SDS011;1015;49.756;6.994;2022-08-01T00:53:09;1.77;;;1.67;;
2021;SDS011;1015;49.756;6.994;2022-08-01T00:55:36;2.30;;;2.10;;
2021;SDS011;1015;49.756;6.994;2022-08-01T00:58:05;2.67;;;2.17;;
2021;SDS011;1015;49.756;6.994;2022-08-01T01:00:32;2.13;;;1.87;;
2021;SDS011;1015;49.756;6.994;2022-08-01T01:03:00;2.13;;;1.93;;
2021;SDS011;1015;49.756;6.994;2022-08-01T01:05:27;2.30;;;2.10;;
2021;SDS011;1015;49.756;6.994;2022-08-01T01:07:56;2.20;;;2.00;;
2021;SDS011;1015;49.756;6.994;2022-08-01T01:10:29;1.70;;;1.60;;
2021;SDS011;1015;49.756;6.994;2022-08-01T01:12:59;1.93;;;1.83;;
2021;SDS011;1015;49.756;6.994;2022-08-01T01:15:33;2.37;;;1.90;;
2021;SDS011;1015;49.756;6.994;2022-08-01T01:18:07;2.87;;;1.97;;
2021;SDS011;1015;49.756;6.994;2022-08-01T01:20:39;4.80;;;2.10;;
2021;SDS011;1015;49.756;6.994;2022-08-01T01:23:24;2.13;;;2.00;;
2021;SDS011;1015;49.756;6.994;2022-08-01T01:26:08;2.47;;;2.13;;
2021;SDS011;1015;49.756;6.994;2022-08-01T01:29:03;3.43;;;1.80;;
2021;SDS011;1015;49.756;6.994;2022-08-01T01:31:40;3.57;;;1.93;;
2021;SDS011;1015;49.756;6.994;2022-08-01T01:34:09;2.87;;;2.17;;
2021;SDS011;1015;49.756;6.994;2022-08-01T01:36:39;2.60;;;1.83;;
2021;SDS011;1015;49.756;6.994;2022-08-01T01:39:07;2.03;;;1.93;;
2021;SDS011;1015;49.756;6.994;2022-08-01T01:41:35;2.00;;;1.90;;
2021;SDS011;1015;49.756;6.994;2022-08-01T01:44:05;2.20;;;1.93;;
2021;SDS011;1015;49.756;6.994;2022-08-01T01:46:32;2.70;;;1.90;;
2021;SDS011;1015;49.756;6.994;2022-08-01T01:49:00;2.33;;;2.13;;
2021;SDS011;1015;49.756;6.994;2022-08-01T01:51:28;2.13;;;1.93;;
2021;SDS011;1015;49.756;6.994;2022-08-01T01:53:56;2.33;;;2.13;;
2021;SDS011;1015;49.756;6.994;2022-08-01T01:56:25;2.23;;;1.90;;
2021;SDS011;1015;49.756;6.994;2022-08-01T01:58:54;2.73;;;1.90;;
2021;SDS011;1015;49.756;6.994;2022-08-01T02:01:27;1.90;;;1.80;;
2021;SDS011;1015;49.756;6.994;2022-08-01T02:03:57;2.80;;;2.00;;
2021;SDS011;1015;49.756;6.994;2022-08-01T02:06:27;3.23;;;2.10;;
2021;SDS011;1015;49.756;6.994;2022-08-01T02:08:55;1.50;;;1.40;;
2021;SDS011;1015;49.756;6.994;2022-08-01T02:11:23;1.90;;;1.60;;
2021;SDS011;1015;49.756;6.994;2022-08-01T02:13:52;2.30;;;1.70;;
2021;SDS011;1015;49.756;6.994;2022-08-01T02:16:22;1.70;;;1.57;;
2021;SDS011;1015;49.756;6.994;2022-08-01T02:18:53;3.13;;;2.37;;
2021;SDS011;1015;49.756;6.994;2022-08-01T02:21:30;1.97;;;1.87;;
2021;SDS011;1015;49.756;6.994;2022-08-01T02:24:03;2.87;;;1.90;;
2021;SDS011;1015;49.756;6.994;2022-08-01T02:26:38;2.30;;;2.00;;
2021;SDS011;1015;49.756;6.994;2022-08-01T02:29:09;2.80;;;1.90;;
2021;SDS011;1015;49.756;6.994;2022-08-01T02:31:39;4.23;;;2.10;;
2021;SDS011;1015;49.756;6.994;2022-08-01T02:34:15;3.00;;;2.17;;
2021;SDS011;1015;49.756;6.994;2022-08-01T02:36:44;2.20;;;2.00;;
2021;SDS011;1015;49.756;6.994;2022-08-01T02:39:14;1.80;;;1.70;;
2021;SDS011;1015;49.756;6.994;2022-08-01T02:41:46;2.30;;;2.10;;
2021;SDS011;1015;49.756;6.994;2022-08-01T02:44:16;2.47;;;2.10;;
2021;SDS011;1015;49.756;6.994;2022-08-01T02:46:51;2.43;;;2.23;;
2021;SDS011;1015;49.756;6.994;2022-08-01T02:49:24;2.10;;;1.83;;
2021;SDS011;1015;49.756;6.994;2022-08-01T02:51:53;2.50;;;2.30;;
2021;SDS011;1015;49.756;6.994;2022-08-01T02:54:21;4.33;;;2.20;;
2021;SDS011;1015;49.756;6.994;2022-08-01T02:56:50;2.60;;;2.20;;
2021;SDS011;1015;49.756;6.994;2022-08-01T02:59:19;2.00;;;1.90;;
2021;SDS011;1015;49.756;6.994;2022-08-01T03:01:50;2.60;;;2.17;;
2021;SDS011;1015;49.756;6.994;2022-08-01T03:04:20;2.33;;;1.80;;
2021;SDS011;1015;49.756;6.994;2022-08-01T03:06:50;2.37;;;1.60;;
2021;SDS011;1015;49.756;6.994;2022-08-01T03:09:18;2.50;;;1.77;;
2021;SDS011;1015;49.756;6.994;2022-08-01T03:11:48;1.90;;;1.80;;
2021;SDS011;1015;49.756;6.994;2022-08-01T03:14:16;2.90;;;2.10;;
2021;SDS011;1015;49.756;6.994;2022-08-01T03:16:45;2.13;;;1.93;;
2021;SDS011;1015;49.756;6.994;2022-08-01T03:19:13;4.43;;;2.10;;
2021;SDS011;1015;49.756;6.994;2022-08-01T03:21:43;2.37;;;2.10;;
2021;SDS011;1015;49.756;6.994;2022-08-01T03:24:11;2.37;;;2.17;;
2021;SDS011;1015;49.756;6.994;2022-08-01T03:26:39;2.20;;;2.00;;
2021;SDS011;1015;49.756;6.994;2022-08-01T03:29:08;2.47;;;2.10;;
2021;SDS011;1015;49.756;6.994;2022-08-01T03:31:38;2.40;;;2.20;;
2021;SDS011;1015;49.756;6.994;2022-08-01T03:34:09;2.57;;;2.23;;
2021;SDS011;1015;49.756;6.994;2022-08-01T03:36:38;2.30;;;2.10;;
2021;SDS011;1015;49.756;6.994;2022-08-01T03:39:12;2.10;;;1.90;;
2021;SDS011;1015;49.756;6.994;2022-08-01T03:41:43;2.07;;;1.97;;
2021;SDS011;1015;49.756;6.994;2022-08-01T03:44:15;2.20;;;2.00;;
2021;SDS011;1015;49.756;6.994;2022-08-01T03:46:47;2.23;;;1.77;;
2021;SDS011;1015;49.756;6.994;2022-08-01T03:49:16;2.10;;;2.00;;
2021;SDS011;1015;49.756;6.994;2022-08-01T03:51:49;2.03;;;1.93;;
2021;SDS011;1015;49.756;6.994;2022-08-01T03:54:20;2.10;;;1.90;;
2021;SDS011;1015;49.756;6.994;2022-08-01T03:56:49;2.30;;;2.10;;
2021;SDS011;1015;49.756;6.994;2022-08-01T03:59:18;2.13;;;1.93;;
2021;SDS011;1015;49.756;6.994;2022-08-01T04:01:46;2.47;;;1.87;;
2021;SDS011;1015;49.756;6.994;2022-08-01T04:04:14;3.10;;;2.40;;
2021;SDS011;1015;49.756;6.994;2022-08-01T04:06:41;3.07;;;2.20;;
2021;SDS011;1015;49.756;6.994;2022-08-01T04:09:11;4.70;;;2.63;;
2021;SDS011;1015;49.756;6.994;2022-08-01T04:11:38;2.13;;;1.93;;
2021;SDS011;1015;49.756;6.994;2022-08-01T04:14:06;2.50;;;2.00;;
2021;SDS011;1015;49.756;6.994;2022-08-01T04:16:32;2.40;;;2.20;;
2021;SDS011;1015;49.756;6.994;2022-08-01T04:19:00;2.80;;;2.60;;
2021;SDS011;1015;49.756;6.994;2022-08-01T04:21:27;2.70;;;2.50;;
2021;SDS011;1015;49.756;6.994;2022-08-01T04:23:58;2.43;;;2.23;;
2021;SDS011;1015;49.756;6.994;2022-08-01T04:26:31;2.30;;;2.10;;
2021;SDS011;1015;49.756;6.994;2022-08-01T04:29:00;2.77;;;2.30;;
2021;SDS011;1015;49.756;6.994;2022-08-01T04:31:30;3.87;;;2.70;;
2021;SDS011;1015;49.756;6.994;2022-08-01T04:34:01;2.40;;;2.20;;
2021;SDS011;1015;49.756;6.994;2022-08-01T04:36:30;2.80;;;2.20;;
2021;SDS011;1015;49.756;6.994;2022-08-01T04:39:01;3.30;;;2.87;;
2021;SDS011;1015;49.756;6.994;2022-08-01T04:41:31;4.33;;;2.40;;
2021;SDS011;1015;49.756;6.994;2022-08-01T04:44:00;2.63;;;2.33;;
2021;SDS011;1015;49.756;6.994;2022-08-01T04:46:29;4.00;;;2.70;;
2021;SDS011;1015;49.756;6.994;2022-08-01T04:48:57;2.70;;;2.50;;
2021;SDS011;1015;49.756;6.994;2022-08-01T04:51:25;5.07;;;2.90;;
2021;SDS011;1015;49.756;6.994;2022-08-01T04:53:52;2.83;;;2.40;;
2021;SDS011;1015;49.756;6.994;2022-08-01T04:56:19;2.73;;;2.53;;
2021;SDS011;1015;49.756;6.994;2022-08-01T04:58:48;3.50;;;2.23;;
2021;SDS011;1015;49.756;6.994;2022-08-01T05:01:35;2.13;;;2.03;;
2021;SDS011;1015;49.756;6.994;2022-08-01T05:04:02;2.80;;;2.60;;
2021;SDS011;1015;49.756;6.994;2022-08-01T05:06:29;4.23;;;2.23;;
2021;SDS011;1015;49.756;6.994;2022-08-01T05:08:56;2.57;;;2.37;;
2021;SDS011;1015;49.756;6.994;2022-08-01T05:11:23;2.20;;;2.00;;
2021;SDS011;1015;49.756;6.994;2022-08-01T05:13:51;2.60;;;2.10;;
2021;SDS011;1015;49.756;6.994;2022-08-01T05:16:18;2.40;;;2.20;;
2021;SDS011;1015;49.756;6.994;2022-08-01T05:18:45;2.13;;;2.03;;
2021;SDS011;1015;49.756;6.994;2022-08-01T05:21:12;3.47;;;2.67;;
2021;SDS011;1015;49.756;6.994;2022-08-01T05:23:39;2.20;;;2.10;;
2021;SDS011;1015;49.756;6.994;2022-08-01T05:26:06;2.70;;;2.10;;
2021;SDS011;1015;49.756;6.994;2022-08-01T05:28:35;1.87;;;1.77;;
2021;SDS011;1015;49.756;6.994;2022-08-01T05:31:04;3.00;;;1.93;;
2021;SDS011;1015;49.756;6.994;2022-08-01T05:33:31;2.43;;;2.23;;
2021;SDS011;1015;49.756;6.994;2022-08-01T05:35:58;2.50;;;2.13;;
2021;SDS011;1015;49.756;6.994;2022-08-01T05:38:25;1.83;;;1.73;;
2021;SDS011;1015;49.756;6.994;2022-08-01T05:40:52;2.00;;;1.90;;
2021;SDS011;1015;49.756;6.994;2022-08-01T05:43:19;1.80;;;1.70;;
2021;SDS011;1015;49.756;6.994;2022-08-01T05:45:46;2.30;;;2.10;;
2021;SDS011;1015;49.756;6.994;2022-08-01T05:48:14;2.30;;;1.70;;
2021;SDS011;1015;49.756;6.994;2022-08-01T05:50:41;2.53;;;2.00;;
2021;SDS011;1015;49.756;6.994;2022-08-01T05:53:08;1.97;;;1.77;;
2021;SDS011;1015;49.756;6.994;2022-08-01T05:55:35;2.73;;;2.53;;
2021;SDS011;1015;49.756;6.994;2022-08-01T05:58:02;4.33;;;2.87;;
2021;SDS011;1015;49.756;6.994;2022-08-01T06:00:29;2.63;;;2.07;;
2021;SDS011;1015;49.756;6.994;2022-08-01T06:02:56;3.60;;;1.77;;
2021;SDS011;1015;49.756;6.994;2022-08-01T06:05:24;3.23;;;1.87;;
2021;SDS011;1015;49.756;6.994;2022-08-01T06:07:51;1.87;;;1.77;;
2021;SDS011;1015;49.756;6.994;2022-08-01T06:10:18;1.80;;;1.70;;
2021;SDS011;1015;49.756;6.994;2022-08-01T06:12:45;3.40;;;2.03;;
2021;SDS011;1015;49.756;6.994;2022-08-01T06:15:12;3.03;;;1.63;;
2021;SDS011;1015;49.756;6.994;2022-08-01T06:17:39;2.30;;;1.80;;
2021;SDS011;1015;49.756;6.994;2022-08-01T06:20:07;2.20;;;2.00;;
2021;SDS011;1015;49.756;6.994;2022-08-01T06:22:37;1.80;;;1.70;;
2021;SDS011;1015;49.756;6.994;2022-08-01T06:25:04;1.80;;;1.67;;
2021;SDS011;1015;49.756;6.994;2022-08-01T06:27:33;2.67;;;2.47;;
2021;SDS011;1015;49.756;6.994;2022-08-01T06:30:01;2.27;;;2.17;;
2021;SDS011;1015;49.756;6.994;2022-08-01T06:32:28;2.67;;;2.00;;
2021;SDS011;1015;49.756;6.994;2022-08-01T06:34:56;1.97;;;1.87;;
2021;SDS011;1015;49.756;6.994;2022-08-01T06:37:23;2.37;;;2.20;;
2021;SDS011;1015;49.756;6.994;2022-08-01T06:39:51;2.10;;;2.00;;
2021;SDS011;1015;49.756;6.994;2022-08-01T06:42:18;1.70;;;1.60;;
2021;SDS011;1015;49.756;6.994;2022-08-01T06:44:45;2.20;;;2.00;;
2021;SDS011;1015;49.756;6.994;2022-08-01T06:47:12;2.67;;;2.00;;
2021;SDS011;1015;49.756;6.994;2022-08-01T06:49:39;2.50;;;1.97;;
2021;SDS011;1015;49.756;6.994;2022-08-01T06:52:06;2.10;;;2.00;;
2021;SDS011;1015;49.756;6.994;2022-08-01T06:54:33;2.53;;;1.90;;
2021;SDS011;1015;49.756;6.994;2022-08-01T06:57:02;2.13;;;1.73;;
2021;SDS011;1015;49.756;6.994;2022-08-01T06:59:31;3.07;;;1.90;;
2021;SDS011;1015;49.756;6.994;2022-08-01T07:01:58;1.77;;;1.67;;
2021;SDS011;1015;49.756;6.994;2022-08-01T07:04:26;1.80;;;1.70;;
2021;SDS011;1015;49.756;6.994;2022-08-01T07:06:53;1.47;;;1.37;;
2021;SDS011;1015;49.756;6.994;2022-08-01T07:09:19;1.97;;;1.87;;
2021;SDS011;1015;49.756;6.994;2022-08-01T07:11:46;1.90;;;1.80;;
2021;SDS011;1015;49.756;6.994;2022-08-01T07:14:15;2.53;;;1.90;;
2021;SDS011;1015;49.756;6.994;2022-08-01T07:16:42;2.20;;;2.00;;
2021;SDS011;1015;49.756;6.994;2022-08-01T07:19:09;4.13;;;2.60;;
2021;SDS011;1015;49.756;6.994;2022-08-01T07:21:35;2.07;;;1.83;;
2021;SDS011;1015;49.756;6.994;2022-08-01T07:24:03;2.80;;;2.00;;
2021;SDS011;1015;49.756;6.994;2022-08-01T07:26:31;2.50;;;2.30;;
2021;SDS011;1015;49.756;6.994;2022-08-01T07:28:59;1.80;;;1.70;;
2021;SDS011;1015;49.756;6.994;2022-08-01T07:31:27;2.03;;;1.90;;
2021;SDS011;1015;49.756;6.994;2022-08-01T07:33:54;3.60;;;2.10;;
2021;SDS011;1015;49.756;6.994;2022-08-01T07:36:21;2.33;;;2.13;;
2021;SDS011;1015;49.756;6.994;2022-08-01T07:38:48;2.13;;;2.03;;
2021;SDS011;1015;49.756;6.994;2022-08-01T07:41:15;2.00;;;1.80;;
2021;SDS011;1015;49.756;6.994;2022-08-01T07:43:42;1.90;;;1.70;;
2021;SDS011;1015;49.756;6.994;2022-08-01T07:46:09;1.90;;;1.80;;
2021;SDS011;1015;49.756;6.994;2022-08-01T07:48:37;1.80;;;1.70;;
2021;SDS011;1015;49.756;6.994;2022-08-01T07:51:04;2.43;;;1.70;;
2021;SDS011;1015;49.756;6.994;2022-08-01T07:53:31;2.23;;;1.73;;
2021;SDS011;1015;49.756;6.994;2022-08-01T07:55:58;2.07;;;1.70;;
2021;SDS011;1015;49.756;6.994;2022-08-01T07:58:27;1.70;;;1.60;;
2021;SDS011;1015;49.756;6.994;2022-08-01T08:00:54;1.40;;;1.30;;
2021;SDS011;1015;49.756;6.994;2022-08-01T08:03:21;1.90;;;1.80;;
2021;SDS011;1015;49.756;6.994;2022-08-01T08:05:49;2.50;;;2.00;;
2021;SDS011;1015;49.756;6.994;2022-08-01T08:08:16;1.83;;;1.73;;
2021;SDS011;1015;49.756;6.994;2022-08-01T08:10:43;1.87;;;1.77;;
2021;SDS011;1015;49.756;6.994;2022-08-01T08:13:10;1.50;;;1.40;;
2021;SDS011;1015;49.756;6.994;2022-08-01T08:15:37;1.40;;;1.30;;
2021;SDS011;1015;49.756;6.994;2022-08-01T08:18:05;1.57;;;1.47;;
2021;SDS011;1015;49.756;6.994;2022-08-01T08:20:32;1.60;;;1.50;;
2021;SDS011;1015;49.756;6.994;2022-08-01T08:23:00;1.60;;;1.50;;
2021;SDS011;1015;49.756;6.994;2022-08-01T08:25:47;2.00;;;1.90;;
2021;SDS011;1015;49.756;6.994;2022-08-01T08:28:14;1.90;;;1.80;;
2021;SDS011;1015;49.756;6.994;2022-08-01T08:30:41;2.63;;;1.47;;
2021;SDS011;1015;49.756;6.994;2022-08-01T08:33:08;2.30;;;1.90;;
2021;SDS011;1015;49.756;6.994;2022-08-01T08:35:35;1.70;;;1.60;;
2021;SDS011;1015;49.756;6.994;2022-08-01T08:38:03;1.73;;;1.63;;
2021;SDS011;1015;49.756;6.994;2022-08-01T08:40:30;2.60;;;1.50;;
2021;SDS011;1015;49.756;6.994;2022-08-01T08:43:00;1.60;;;1.50;;
2021;SDS011;1015;49.756;6.994;2022-08-01T08:45:30;1.60;;;1.50;;
2021;SDS011;1015;49.756;6.994;2022-08-01T08:47:58;1.80;;;1.70;;
2021;SDS011;1015;49.756;6.994;2022-08-01T08:50:25;3.80;;;1.50;;
2021;SDS011;1015;49.756;6.994;2022-08-01T08:52:53;4.10;;;2.53;;
2021;SDS011;1015;49.756;6.994;2022-08-01T08:55:22;1.33;;;1.27;;
2021;SDS011;1015;49.756;6.994;2022-08-01T08:57:50;2.13;;;1.50;;
2021;SDS011;1015;49.756;6.994;2022-08-01T09:00:18;2.70;;;1.50;;
2021;SDS011;1015;49.756;6.994;2022-08-01T09:02:46;1.83;;;1.53;;
2021;SDS011;1015;49.756;6.994;2022-08-01T09:05:15;1.33;;;1.17;;
2021;SDS011;1015;49.756;6.994;2022-08-01T09:07:43;1.70;;;1.30;;
2021;SDS011;1015;49.756;6.994;2022-08-01T09:10:10;1.40;;;1.30;;
2021;SDS011;1015;49.756;6.994;2022-08-01T09:12:39;1.47;;;1.37;;
2021;SDS011;1015;49.756;6.994;2022-08-01T09:15:29;1.10;;;1.10;;
2021;SDS011;1015;49.756;6.994;2022-08-01T09:18:04;1.67;;;1.57;;
2021;SDS011;1015;49.756;6.994;2022-08-01T09:20:31;1.80;;;1.70;;
2021;SDS011;1015;49.756;6.994;2022-08-01T09:23:00;3.80;;;1.60;;
2021;SDS011;1015;49.756;6.994;2022-08-01T09:25:28;1.83;;;1.53;;
2021;SDS011;1015;49.756;6.994;2022-08-01T09:28:04;2.73;;;1.53;;
2021;SDS011;1015;49.756;6.994;2022-08-01T09:30:36;1.80;;;1.70;;
2021;SDS011;1015;49.756;6.994;2022-08-01T09:33:05;1.60;;;1.50;;
2021;SDS011;1015;49.756;6.994;2022-08-01T09:35:32;2.43;;;1.70;;
2021;SDS011;1015;49.756;6.994;2022-08-01T09:38:11;1.67;;;1.57;;
2021;SDS011;1015;49.756;6.994;2022-08-01T09:40:44;3.00;;;1.67;;
2021;SDS011;1015;49.756;6.994;2022-08-01T09:43:13;1.70;;;1.60;;
2021;SDS011;1015;49.756;6.994;2022-08-01T09:45:40;2.17;;;1.60;;
2021;SDS011;1015;49.756;6.994;2022-08-01T09:48:07;1.70;;;1.60;;
2021;SDS011;1015;49.756;6.994;2022-08-01T09:50:39;1.57;;;1.47;;
2021;SDS011;1015;49.756;6.994;2022-08-01T09:53:07;1.97;;;1.80;;
2021;SDS011;1015;49.756;6.994;2022-08-01T09:55:35;4.43;;;1.83;;
2021;SDS011;1015;49.756;6.994;2022-08-01T09:58:02;2.17;;;2.07;;
2021;SDS011;1015;49.756;6.994;2022-08-01T10:00:32;1.90;;;1.80;;
2021;SDS011;1015;49.756;6.994;2022-08-01T10:02:59;2.17;;;2.07;;
2021;SDS011;1015;49.756;6.994;2022-08-01T10:05:44;1.83;;;1.70;;
2021;SDS011;1015;49.756;6.994;2022-08-01T10:08:12;1.80;;;1.70;;
2021;SDS011;1015;49.756;6.994;2022-08-01T10:10:39;3.20;;;1.80;;
2021;SDS011;1015;49.756;6.994;2022-08-01T10:13:06;1.60;;;1.50;;
2021;SDS011;1015;49.756;6.994;2022-08-01T10:15:36;1.90;;;1.80;;
2021;SDS011;1015;49.756;6.994;2022-08-01T10:18:04;1.50;;;1.40;;
2021;SDS011;1015;49.756;6.994;2022-08-01T10:20:33;2.07;;;1.90;;
2021;SDS011;1015;49.756;6.994;2022-08-01T10:23:01;2.07;;;1.90;;
2021;SDS011;1015;49.756;6.994;2022-08-01T10:25:31;1.70;;;1.60;;
2021;SDS011;1015;49.756;6.994;2022-08-01T10:28:02;1.83;;;1.73;;
2021;SDS011;1015;49.756;6.994;2022-08-01T10:30:37;2.00;;;1.90;;
2021;SDS011;1015;49.756;6.994;2022-08-01T10:33:07;1.67;;;1.57;;
2021;SDS011;1015;49.756;6.994;2022-08-01T10:35:34;3.43;;;1.97;;
2021;SDS011;1015;49.756;6.994;2022-08-01T10:38:02;2.37;;;1.73;;
2021;SDS011;1015;49.756;6.994;2022-08-01T10:40:29;2.03;;;1.60;;
2021;SDS011;1015;49.756;6.994;2022-08-01T10:42:57;4.70;;;2.40;;
2021;SDS011;1015;49.756;6.994;2022-08-01T10:45:24;1.60;;;1.50;;
2021;SDS011;1015;49.756;6.994;2022-08-01T10:47:56;1.70;;;1.60;;
2021;SDS011;1015;49.756;6.994;2022-08-01T10:50:27;1.63;;;1.53;;
2021;SDS011;1015;49.756;6.994;2022-08-01T10:53:05;1.63;;;1.53;;
2021;SDS011;1015;49.756;6.994;2022-08-01T10:55:47;1.50;;;1.37;;
2021;SDS011;1015;49.756;6.994;2022-08-01T10:58:19;1.37;;;1.27;;
2021;SDS011;1015;49.756;6.994;2022-08-01T11:04:06;1.60;;;1.50;;
2021;SDS011;1015;49.756;6.994;2022-08-01T11:09:30;1.33;;;1.13;;
2021;SDS011;1015;49.756;6.994;2022-08-01T11:12:05;2.90;;;1.53;;
2021;SDS011;1015;49.756;6.994;2022-08-01T11:15:15;1.37;;;1.27;;
2021;SDS011;1015;49.756;6.994;2022-08-01T11:17:49;1.33;;;1.23;;
2021;SDS011;1015;49.756;6.994;2022-08-01T11:20:18;1.50;;;1.40;;
2021;SDS011;1015;49.756;6.994;2022-08-01T11:26:08;1.53;;;1.43;;
2021;SDS011;1015;49.756;6.994;2022-08-01T11:28:37;1.53;;;1.40;;
2021;SDS011;1015;49.756;6.994;2022-08-01T11:33:54;1.40;;;1.30;;
2021;SDS011;1015;49.756;6.994;2022-08-01T11:36:21;3.10;;;1.30;;
2021;SDS011;1015;49.756;6.994;2022-08-01T11:38:49;1.33;;;1.20;;
2021;SDS011;1015;49.756;6.994;2022-08-01T11:41:32;1.20;;;1.10;;
2021;SDS011;1015;49.756;6.994;2022-08-01T11:44:01;1.33;;;1.13;;
2021;SDS011;1015;49.756;6.994;2022-08-01T11:46:48;1.20;;;1.10;;
2021;SDS011;1015;49.756;6.994;2022-08-01T11:52:26;1.27;;;1.03;;
2021;SDS011;1015;49.756;6.994;2022-08-01T11:54:55;1.40;;;1.30;;
2021;SDS011;1015;49.756;6.994;2022-08-01T11:57:24;1.83;;;1.20;;
2021;SDS011;1015;49.756;6.994;2022-08-01T11:59:55;1.10;;;1.10;;
2021;SDS011;1015;49.756;6.994;2022-08-01T12:02:26;1.33;;;1.33;;
2021;SDS011;1015;49.756;6.994;2022-08-01T12:04:54;1.20;;;1.13;;
2021;SDS011;1015;49.756;6.994;2022-08-01T12:07:27;1.30;;;1.20;;
2021;SDS011;1015;49.756;6.994;2022-08-01T12:10:01;1.43;;;1.30;;
2021;SDS011;1015;49.756;6.994;2022-08-01T12:12:31;1.43;;;1.20;;
2021;SDS011;1015;49.756;6.994;2022-08-01T12:15:00;1.10;;;1.10;;
2021;SDS011;1015;49.756;6.994;2022-08-01T12:17:32;1.30;;;1.20;;
2021;SDS011;1015;49.756;6.994;2022-08-01T12:20:01;3.30;;;1.23;;
2021;SDS011;1015;49.756;6.994;2022-08-01T12:22:30;1.03;;;1.03;;
2021;SDS011;1015;49.756;6.994;2022-08-01T12:25:04;1.77;;;1.40;;
2021;SDS011;1015;49.756;6.994;2022-08-01T12:27:32;1.10;;;1.10;;
2021;SDS011;1015;49.756;6.994;2022-08-01T12:29:59;1.50;;;1.40;;
2021;SDS011;1015;49.756;6.994;2022-08-01T12:32:28;1.63;;;1.40;;
2021;SDS011;1015;49.756;6.994;2022-08-01T12:35:00;1.23;;;1.13;;
2021;SDS011;1015;49.756;6.994;2022-08-01T12:37:28;1.73;;;1.30;;
2021;SDS011;1015;49.756;6.994;2022-08-01T12:39:57;1.30;;;1.27;;
2021;SDS011;1015;49.756;6.994;2022-08-01T12:42:25;1.27;;;1.17;;
2021;SDS011;1015;49.756;6.994;2022-08-01T12:44:53;1.20;;;1.10;;
2021;SDS011;1015;49.756;6.994;2022-08-01T12:47:21;1.40;;;1.30;;
2021;SDS011;1015;49.756;6.994;2022-08-01T12:49:49;2.63;;;1.50;;
2021;SDS011;1015;49.756;6.994;2022-08-01T12:52:18;2.60;;;1.67;;
2021;SDS011;1015;49.756;6.994;2022-08-01T12:54:59;1.60;;;1.50;;
2021;SDS011;1015;49.756;6.994;2022-08-01T12:57:34;1.67;;;1.30;;
2021;SDS011;1015;49.756;6.994;2022-08-01T13:00:07;1.67;;;1.50;;
2021;SDS011;1015;49.756;6.994;2022-08-01T13:02:40;1.67;;;1.33;;
2021;SDS011;1015;49.756;6.994;2022-08-01T13:05:08;2.20;;;1.33;;
2021;SDS011;1015;49.756;6.994;2022-08-01T13:07:38;1.57;;;1.20;;
2021;SDS011;1015;49.756;6.994;2022-08-01T13:10:07;1.60;;;1.50;;
2021;SDS011;1015;49.756;6.994;2022-08-01T13:12:35;1.70;;;1.10;;
2021;SDS011;1015;49.756;6.994;2022-08-01T13:15:22;1.20;;;1.20;;
2021;SDS011;1015;49.756;6.994;2022-08-01T13:17:51;1.20;;;1.20;;
2021;SDS011;1015;49.756;6.994;2022-08-01T13:20:23;2.03;;;1.20;;
2021;SDS011;1015;49.756;6.994;2022-08-01T13:22:57;1.03;;;0.90;;
2021;SDS011;1015;49.756;6.994;2022-08-01T13:25:46;1.30;;;1.20;;
2021;SDS011;1015;49.756;6.994;2022-08-01T13:28:14;1.83;;;1.10;;
2021;SDS011;1015;49.756;6.994;2022-08-01T13:30:50;1.37;;;1.27;;
2021;SDS011;1015;49.756;6.994;2022-08-01T13:33:21;1.40;;;1.20;;
2021;SDS011;1015;49.756;6.994;2022-08-01T13:35:49;1.30;;;1.30;;
2021;SDS011;1015;49.756;6.994;2022-08-01T13:38:19;1.30;;;1.20;;
2021;SDS011;1015;49.756;6.994;2022-08-01T13:41:06;0.97;;;0.97;;
2021;SDS011;1015;49.756;6.994;2022-08-01T13:43:34;3.10;;;1.27;;
2021;SDS011;1015;49.756;6.994;2022-08-01T13:46:01;1.33;;;1.20;;
2021;SDS011;1015;49.756;6.994;2022-08-01T13:48:29;1.33;;;1.30;;
2021;SDS011;1015;49.756;6.994;2022-08-01T13:50:57;1.80;;;1.30;;
2021;SDS011;1015;49.756;6.994;2022-08-01T13:53:25;1.27;;;1.17;;
2021;SDS011;1015;49.756;6.994;2022-08-01T13:55:52;1.57;;;1.47;;
2021;SDS011;1015;49.756;6.994;2022-08-01T13:58:19;1.57;;;1.40;;
2021;SDS011;1015;49.756;6.994;2022-08-01T14:00:46;0.90;;;0.90;;
2021;SDS011;1015;49.756;6.994;2022-08-01T14:03:13;1.47;;;1.33;;
2021;SDS011;1015;49.756;6.994;2022-08-01T14:05:41;1.17;;;1.07;;
2021;SDS011;1015;49.756;6.994;2022-08-01T14:08:09;1.50;;;1.40;;
2021;SDS011;1015;49.756;6.994;2022-08-01T14:10:37;1.73;;;1.50;;
2021;SDS011;1015;49.756;6.994;2022-08-01T14:13:04;1.40;;;1.30;;
2021;SDS011;1015;49.756;6.994;2022-08-01T14:15:31;1.50;;;1.40;;
2021;SDS011;1015;49.756;6.994;2022-08-01T14:17:59;1.37;;;1.27;;
2021;SDS011;1015;49.756;6.994;2022-08-01T14:20:26;1.50;;;1.40;;
2021;SDS011;1015;49.756;6.994;2022-08-01T14:22:53;1.60;;;1.50;;
2021;SDS011;1015;49.756;6.994;2022-08-01T14:25:20;1.77;;;1.67;;
2021;SDS011;1015;49.756;6.994;2022-08-01T14:27:48;1.80;;;1.40;;
2021;SDS011;1015;49.756;6.994;2022-08-01T14:30:15;2.03;;;1.73;;
2021;SDS011;1015;49.756;6.994;2022-08-01T14:32:42;1.47;;;1.20;;
2021;SDS011;1015;49.756;6.994;2022-08-01T14:35:09;1.90;;;1.50;;
2021;SDS011;1015;49.756;6.994;2022-08-01T14:37:36;1.60;;;1.50;;
2021;SDS011;1015;49.756;6.994;2022-08-01T14:40:03;1.37;;;1.27;;
2021;SDS011;1015;49.756;6.994;2022-08-01T14:42:34;1.70;;;1.53;;
2021;SDS011;1015;49.756;6.994;2022-08-01T14:45:03;3.00;;;1.60;;
2021;SDS011;1015;49.756;6.994;2022-08-01T14:47:34;1.77;;;1.67;;
2021;SDS011;1015;49.756;6.994;2022-08-01T14:50:01;1.80;;;1.70;;
2021;SDS011;1015;49.756;6.994;2022-08-01T14:52:29;1.60;;;1.50;;
2021;SDS011;1015;49.756;6.994;2022-08-01T14:54:56;1.57;;;1.47;;
2021;SDS011;1015;49.756;6.994;2022-08-01T14:57:23;1.63;;;1.53;;
2021;SDS011;1015;49.756;6.994;2022-08-01T14:59:51;1.67;;;1.57;;
2021;SDS011;1015;49.756;6.994;2022-08-01T15:02:19;3.93;;;1.70;;
2021;SDS011;1015;49.756;6.994;2022-08-01T15:04:46;2.60;;;1.80;;
2021;SDS011;1015;49.756;6.994;2022-08-01T15:07:14;2.10;;;1.67;;
2021;SDS011;1015;49.756;6.994;2022-08-01T15:09:42;1.60;;;1.50;;
2021;SDS011;1015;49.756;6.994;2022-08-01T15:12:10;1.37;;;1.27;;
2021;SDS011;1015;49.756;6.994;2022-08-01T15:14:37;1.67;;;1.57;;
2021;SDS011;1015;49.756;6.994;2022-08-01T15:17:16;1.53;;;1.43;;
2021;SDS011;1015;49.756;6.994;2022-08-01T15:19:46;2.90;;;1.50;;
2021;SDS011;1015;49.756;6.994;2022-08-01T15:22:14;1.63;;;1.53;;
2021;SDS011;1015;49.756;6.994;2022-08-01T15:24:41;1.90;;;1.30;;
2021;SDS011;1015;49.756;6.994;2022-08-01T15:27:09;1.73;;;1.50;;
2021;SDS011;1015;49.756;6.994;2022-08-01T15:29:36;1.73;;;1.63;;
2021;SDS011;1015;49.756;6.994;2022-08-01T15:32:04;1.57;;;1.47;;
2021;SDS011;1015;49.756;6.994;2022-08-01T15:34:32;1.23;;;1.17;;
2021;SDS011;1015;49.756;6.994;2022-08-01T15:37:01;1.60;;;1.40;;
2021;SDS011;1015;49.756;6.994;2022-08-01T15:39:29;1.60;;;1.50;;
2021;SDS011;1015;49.756;6.994;2022-08-01T15:41:58;1.80;;;1.70;;
2021;SDS011;1015;49.756;6.994;2022-08-01T15:44:25;2.10;;;1.67;;